sensor_id;sensor_type;location;lat;lon;timestamp;P1;durP1;ratioP1;P2;durP2;ratioP2
66425;SDS011;53237;46.158;14.604;2023-02-14T00:02:03;21.55;;;15.25;;
66425;SDS011;53237;46.158;14.604;2023-02-14T00:04:29;20.60;;;14.90;;
66425;SDS011;53237;46.158;14.604;2023-02-14T00:06:55;20.85;;;14.52;;
66425;SDS011;53237;46.158;14.604;2023-02-14T00:09:21;23.55;;;15.50;;
66425;SDS011;53237;46.158;14.604;2023-02-14T00:11:47;21.45;;;15.23;;
66425;SDS011;53237;46.158;14.604;2023-02-14T00:14:14;19.38;;;13.93;;
66425;SDS011;53237;46.158;14.604;2023-02-14T00:16:59;21.35;;;14.68;;
66425;SDS011;53237;46.158;14.604;2023-02-14T00:19:25;19.23;;;13.80;;
66425;SDS011;53237;46.158;14.604;2023-02-14T00:21:51;20.08;;;14.60;;
66425;SDS011;53237;46.158;14.604;2023-02-14T00:24:19;19.33;;;13.63;;
66425;SDS011;53237;46.158;14.604;2023-02-14T00:26:46;18.80;;;13.50;;
66425;SDS011;53237;46.158;14.604;2023-02-14T00:29:14;20.55;;;13.77;;
66425;SDS011;53237;46.158;14.604;2023-02-14T00:31:40;21.38;;;14.82;;
66425;SDS011;53237;46.158;14.604;2023-02-14T00:34:07;21.23;;;14.32;;
66425;SDS011;53237;46.158;14.604;2023-02-14T00:36:34;21.67;;;15.38;;
66425;SDS011;53237;46.158;14.604;2023-02-14T00:39:03;23.75;;;15.88;;
66425;SDS011;53237;46.158;14.604;2023-02-14T00:41:29;23.55;;;16.23;;
66425;SDS011;53237;46.158;14.604;2023-02-14T00:43:56;21.40;;;15.35;;
66425;SDS011;53237;46.158;14.604;2023-02-14T00:46:22;20.52;;;15.10;;
66425;SDS011;53237;46.158;14.604;2023-02-14T00:48:48;22.30;;;14.80;;
66425;SDS011;53237;46.158;14.604;2023-02-14T00:51:15;22.90;;;15.55;;
66425;SDS011;53237;46.158;14.604;2023-02-14T00:53:42;19.25;;;14.73;;
66425;SDS011;53237;46.158;14.604;2023-02-14T00:56:09;21.00;;;15.25;;
66425;SDS011;53237;46.158;14.604;2023-02-14T00:58:35;25.25;;;17.10;;
66425;SDS011;53237;46.158;14.604;2023-02-14T01:01:01;23.85;;;15.73;;
66425;SDS011;53237;46.158;14.604;2023-02-14T01:03:27;25.63;;;17.05;;
66425;SDS011;53237;46.158;14.604;2023-02-14T01:05:53;23.20;;;16.25;;
66425;SDS011;53237;46.158;14.604;2023-02-14T01:08:19;20.75;;;14.82;;
66425;SDS011;53237;46.158;14.604;2023-02-14T01:10:45;23.48;;;16.02;;
66425;SDS011;53237;46.158;14.604;2023-02-14T01:13:12;27.63;;;16.27;;
66425;SDS011;53237;46.158;14.604;2023-02-14T01:15:41;21.83;;;15.25;;
66425;SDS011;53237;46.158;14.604;2023-02-14T01:18:08;21.55;;;15.85;;
66425;SDS011;53237;46.158;14.604;2023-02-14T01:20:34;24.92;;;15.20;;
66425;SDS011;53237;46.158;14.604;2023-02-14T01:23:00;19.90;;;15.60;;
66425;SDS011;53237;46.158;14.604;2023-02-14T01:25:26;22.48;;;16.27;;
66425;SDS011;53237;46.158;14.604;2023-02-14T01:27:52;23.52;;;16.45;;
66425;SDS011;53237;46.158;14.604;2023-02-14T01:30:18;22.30;;;15.35;;
66425;SDS011;53237;46.158;14.604;2023-02-14T01:32:45;21.85;;;15.38;;
66425;SDS011;53237;46.158;14.604;2023-02-14T01:35:11;23.13;;;16.85;;
66425;SDS011;53237;46.158;14.604;2023-02-14T01:37:37;22.90;;;15.95;;
66425;SDS011;53237;46.158;14.604;2023-02-14T01:40:03;24.75;;;17.27;;
66425;SDS011;53237;46.158;14.604;2023-02-14T01:42:31;22.67;;;16.23;;
66425;SDS011;53237;46.158;14.604;2023-02-14T01:47:23;23.90;;;15.43;;
66425;SDS011;53237;46.158;14.604;2023-02-14T01:49:59;27.42;;;18.70;;
66425;SDS011;53237;46.158;14.604;2023-02-14T01:52:36;27.85;;;18.20;;
66425;SDS011;53237;46.158;14.604;2023-02-14T01:55:05;22.75;;;17.88;;
66425;SDS011;53237;46.158;14.604;2023-02-14T01:57:33;25.50;;;17.88;;
66425;SDS011;53237;46.158;14.604;2023-02-14T02:00:00;25.42;;;17.30;;
66425;SDS011;53237;46.158;14.604;2023-02-14T02:02:46;24.60;;;16.88;;
66425;SDS011;53237;46.158;14.604;2023-02-14T02:05:12;24.83;;;17.65;;
66425;SDS011;53237;46.158;14.604;2023-02-14T02:07:39;24.85;;;17.70;;
66425;SDS011;53237;46.158;14.604;2023-02-14T02:10:05;28.05;;;18.73;;
66425;SDS011;53237;46.158;14.604;2023-02-14T02:12:32;24.65;;;17.35;;
66425;SDS011;53237;46.158;14.604;2023-02-14T02:14:59;28.40;;;18.08;;
66425;SDS011;53237;46.158;14.604;2023-02-14T02:38:39;23.23;;;17.35;;
66425;SDS011;53237;46.158;14.604;2023-02-14T02:46:08;22.85;;;15.23;;
66425;SDS011;53237;46.158;14.604;2023-02-14T02:52:10;21.60;;;15.73;;
66425;SDS011;53237;46.158;14.604;2023-02-14T02:54:32;25.05;;;16.38;;
66425;SDS011;53237;46.158;14.604;2023-02-14T02:57:00;19.98;;;15.68;;
66425;SDS011;53237;46.158;14.604;2023-02-14T02:59:28;22.05;;;15.52;;
66425;SDS011;53237;46.158;14.604;2023-02-14T03:04:21;22.63;;;15.07;;
66425;SDS011;53237;46.158;14.604;2023-02-14T03:07:06;20.25;;;14.75;;
66425;SDS011;53237;46.158;14.604;2023-02-14T03:09:52;21.63;;;15.77;;
66425;SDS011;53237;46.158;14.604;2023-02-14T03:17:35;21.63;;;14.93;;
66425;SDS011;53237;46.158;14.604;2023-02-14T03:20:07;22.10;;;15.52;;
66425;SDS011;53237;46.158;14.604;2023-02-14T03:22:51;18.27;;;13.95;;
66425;SDS011;53237;46.158;14.604;2023-02-14T03:25:23;22.27;;;13.88;;
66425;SDS011;53237;46.158;14.604;2023-02-14T03:27:55;19.35;;;13.52;;
66425;SDS011;53237;46.158;14.604;2023-02-14T03:30:27;17.67;;;12.77;;
66425;SDS011;53237;46.158;14.604;2023-02-14T03:32:58;19.45;;;13.45;;
66425;SDS011;53237;46.158;14.604;2023-02-14T03:35:31;17.85;;;12.18;;
66425;SDS011;53237;46.158;14.604;2023-02-14T03:45:25;17.50;;;11.60;;
66425;SDS011;53237;46.158;14.604;2023-02-14T03:47:54;17.27;;;11.88;;
66425;SDS011;53237;46.158;14.604;2023-02-14T03:50:20;14.65;;;11.15;;
66425;SDS011;53237;46.158;14.604;2023-02-14T03:52:48;14.73;;;11.15;;
66425;SDS011;53237;46.158;14.604;2023-02-14T03:55:16;15.30;;;11.50;;
66425;SDS011;53237;46.158;14.604;2023-02-14T03:57:52;17.25;;;11.77;;
66425;SDS011;53237;46.158;14.604;2023-02-14T04:00:20;18.80;;;12.43;;
66425;SDS011;53237;46.158;14.604;2023-02-14T04:02:48;15.93;;;11.07;;
66425;SDS011;53237;46.158;14.604;2023-02-14T04:05:15;16.67;;;10.73;;
66425;SDS011;53237;46.158;14.604;2023-02-14T04:07:43;17.55;;;11.80;;
66425;SDS011;53237;46.158;14.604;2023-02-14T04:10:10;16.33;;;11.18;;
66425;SDS011;53237;46.158;14.604;2023-02-14T04:12:36;15.75;;;11.02;;
66425;SDS011;53237;46.158;14.604;2023-02-14T04:15:02;18.30;;;11.57;;
66425;SDS011;53237;46.158;14.604;2023-02-14T04:17:28;15.45;;;11.45;;
66425;SDS011;53237;46.158;14.604;2023-02-14T04:20:13;16.90;;;12.35;;
66425;SDS011;53237;46.158;14.604;2023-02-14T04:22:39;18.60;;;11.85;;
66425;SDS011;53237;46.158;14.604;2023-02-14T04:25:05;18.95;;;12.75;;
66425;SDS011;53237;46.158;14.604;2023-02-14T04:27:31;18.85;;;12.90;;
66425;SDS011;53237;46.158;14.604;2023-02-14T04:29:57;19.02;;;13.40;;
66425;SDS011;53237;46.158;14.604;2023-02-14T04:32:23;16.50;;;12.20;;
66425;SDS011;53237;46.158;14.604;2023-02-14T04:34:49;18.50;;;13.02;;
66425;SDS011;53237;46.158;14.604;2023-02-14T04:37:16;18.30;;;13.52;;
66425;SDS011;53237;46.158;14.604;2023-02-14T04:39:42;18.73;;;13.77;;
66425;SDS011;53237;46.158;14.604;2023-02-14T04:42:08;20.05;;;13.80;;
66425;SDS011;53237;46.158;14.604;2023-02-14T04:44:35;18.20;;;14.25;;
66425;SDS011;53237;46.158;14.604;2023-02-14T04:47:02;18.17;;;13.75;;
66425;SDS011;53237;46.158;14.604;2023-02-14T04:49:28;19.83;;;14.20;;
66425;SDS011;53237;46.158;14.604;2023-02-14T04:51:55;22.13;;;14.23;;
66425;SDS011;53237;46.158;14.604;2023-02-14T04:54:21;18.85;;;13.65;;
66425;SDS011;53237;46.158;14.604;2023-02-14T04:56:47;17.90;;;14.05;;
66425;SDS011;53237;46.158;14.604;2023-02-14T04:59:13;22.73;;;14.07;;
66425;SDS011;53237;46.158;14.604;2023-02-14T05:01:39;20.40;;;14.80;;
66425;SDS011;53237;46.158;14.604;2023-02-14T05:04:05;20.75;;;15.20;;
66425;SDS011;53237;46.158;14.604;2023-02-14T05:06:31;19.13;;;14.82;;
66425;SDS011;53237;46.158;14.604;2023-02-14T05:08:58;20.38;;;14.18;;
66425;SDS011;53237;46.158;14.604;2023-02-14T05:11:24;17.40;;;13.75;;
66425;SDS011;53237;46.158;14.604;2023-02-14T05:13:50;22.25;;;14.75;;
66425;SDS011;53237;46.158;14.604;2023-02-14T05:16:16;19.52;;;14.52;;
66425;SDS011;53237;46.158;14.604;2023-02-14T05:18:42;20.70;;;13.98;;
66425;SDS011;53237;46.158;14.604;2023-02-14T05:21:08;17.90;;;13.57;;
66425;SDS011;53237;46.158;14.604;2023-02-14T05:23:35;19.90;;;14.23;;
66425;SDS011;53237;46.158;14.604;2023-02-14T05:26:01;17.40;;;13.30;;
66425;SDS011;53237;46.158;14.604;2023-02-14T05:28:27;20.77;;;14.20;;
66425;SDS011;53237;46.158;14.604;2023-02-14T05:30:53;21.23;;;13.93;;
66425;SDS011;53237;46.158;14.604;2023-02-14T05:33:20;19.58;;;13.55;;
66425;SDS011;53237;46.158;14.604;2023-02-14T05:35:46;17.85;;;13.75;;
66425;SDS011;53237;46.158;14.604;2023-02-14T05:38:12;17.50;;;13.93;;
66425;SDS011;53237;46.158;14.604;2023-02-14T05:40:39;21.08;;;13.77;;
66425;SDS011;53237;46.158;14.604;2023-02-14T05:43:05;18.63;;;14.52;;
66425;SDS011;53237;46.158;14.604;2023-02-14T05:45:31;19.10;;;14.75;;
66425;SDS011;53237;46.158;14.604;2023-02-14T05:47:57;21.67;;;14.73;;
66425;SDS011;53237;46.158;14.604;2023-02-14T05:50:23;20.05;;;14.50;;
66425;SDS011;53237;46.158;14.604;2023-02-14T05:52:49;21.08;;;15.18;;
66425;SDS011;53237;46.158;14.604;2023-02-14T05:55:15;23.05;;;15.07;;
66425;SDS011;53237;46.158;14.604;2023-02-14T05:57:41;21.70;;;15.23;;
66425;SDS011;53237;46.158;14.604;2023-02-14T06:00:08;22.95;;;14.52;;
66425;SDS011;53237;46.158;14.604;2023-02-14T06:02:34;22.67;;;15.07;;
66425;SDS011;53237;46.158;14.604;2023-02-14T06:05:00;21.73;;;15.07;;
66425;SDS011;53237;46.158;14.604;2023-02-14T06:07:26;34.20;;;21.05;;
66425;SDS011;53237;46.158;14.604;2023-02-14T06:09:52;24.17;;;16.38;;
66425;SDS011;53237;46.158;14.604;2023-02-14T06:12:19;23.63;;;16.85;;
66425;SDS011;53237;46.158;14.604;2023-02-14T06:14:45;26.55;;;16.73;;
66425;SDS011;53237;46.158;14.604;2023-02-14T06:17:11;26.33;;;17.67;;
66425;SDS011;53237;46.158;14.604;2023-02-14T06:19:37;26.63;;;16.85;;
66425;SDS011;53237;46.158;14.604;2023-02-14T06:22:03;26.90;;;18.35;;
66425;SDS011;53237;46.158;14.604;2023-02-14T06:24:29;23.90;;;15.57;;
66425;SDS011;53237;46.158;14.604;2023-02-14T06:26:57;25.10;;;15.73;;
66425;SDS011;53237;46.158;14.604;2023-02-14T06:29:23;23.23;;;15.65;;
66425;SDS011;53237;46.158;14.604;2023-02-14T06:31:49;23.83;;;15.15;;
66425;SDS011;53237;46.158;14.604;2023-02-14T06:34:15;22.45;;;14.88;;
66425;SDS011;53237;46.158;14.604;2023-02-14T06:36:41;24.27;;;14.48;;
66425;SDS011;53237;46.158;14.604;2023-02-14T06:39:07;22.13;;;14.60;;
66425;SDS011;53237;46.158;14.604;2023-02-14T06:41:33;23.58;;;14.15;;
66425;SDS011;53237;46.158;14.604;2023-02-14T06:43:59;23.42;;;15.15;;
66425;SDS011;53237;46.158;14.604;2023-02-14T06:46:25;22.90;;;15.77;;
66425;SDS011;53237;46.158;14.604;2023-02-14T06:48:51;21.70;;;14.80;;
66425;SDS011;53237;46.158;14.604;2023-02-14T06:51:17;26.20;;;15.02;;
66425;SDS011;53237;46.158;14.604;2023-02-14T06:53:43;24.52;;;16.33;;
66425;SDS011;53237;46.158;14.604;2023-02-14T06:56:09;26.05;;;16.20;;
66425;SDS011;53237;46.158;14.604;2023-02-14T06:58:35;27.05;;;17.13;;
66425;SDS011;53237;46.158;14.604;2023-02-14T07:01:01;23.92;;;17.50;;
66425;SDS011;53237;46.158;14.604;2023-02-14T07:03:27;23.98;;;17.33;;
66425;SDS011;53237;46.158;14.604;2023-02-14T07:05:53;28.08;;;18.60;;
66425;SDS011;53237;46.158;14.604;2023-02-14T07:08:19;26.10;;;18.45;;
66425;SDS011;53237;46.158;14.604;2023-02-14T07:10:45;22.77;;;16.98;;
66425;SDS011;53237;46.158;14.604;2023-02-14T07:13:11;24.08;;;17.13;;
66425;SDS011;53237;46.158;14.604;2023-02-14T07:15:38;24.17;;;19.05;;
66425;SDS011;53237;46.158;14.604;2023-02-14T07:18:04;26.50;;;18.13;;
66425;SDS011;53237;46.158;14.604;2023-02-14T07:20:32;26.02;;;18.38;;
66425;SDS011;53237;46.158;14.604;2023-02-14T07:22:58;26.92;;;19.25;;
66425;SDS011;53237;46.158;14.604;2023-02-14T07:25:24;27.58;;;19.90;;
66425;SDS011;53237;46.158;14.604;2023-02-14T07:27:52;25.33;;;18.50;;
66425;SDS011;53237;46.158;14.604;2023-02-14T07:30:18;26.52;;;19.92;;
66425;SDS011;53237;46.158;14.604;2023-02-14T07:32:44;27.17;;;19.65;;
66425;SDS011;53237;46.158;14.604;2023-02-14T07:35:10;28.80;;;19.90;;
66425;SDS011;53237;46.158;14.604;2023-02-14T07:37:37;28.83;;;19.83;;
66425;SDS011;53237;46.158;14.604;2023-02-14T07:40:03;26.13;;;19.00;;
66425;SDS011;53237;46.158;14.604;2023-02-14T07:42:29;27.50;;;19.70;;
66425;SDS011;53237;46.158;14.604;2023-02-14T07:44:55;26.40;;;20.08;;
66425;SDS011;53237;46.158;14.604;2023-02-14T07:47:21;25.50;;;19.40;;
66425;SDS011;53237;46.158;14.604;2023-02-14T07:49:49;27.27;;;20.10;;
66425;SDS011;53237;46.158;14.604;2023-02-14T07:52:15;25.95;;;19.27;;
66425;SDS011;53237;46.158;14.604;2023-02-14T07:54:41;28.27;;;21.92;;
66425;SDS011;53237;46.158;14.604;2023-02-14T07:57:07;26.52;;;20.73;;
66425;SDS011;53237;46.158;14.604;2023-02-14T07:59:33;28.60;;;21.40;;
66425;SDS011;53237;46.158;14.604;2023-02-14T08:01:59;27.48;;;19.85;;
66425;SDS011;53237;46.158;14.604;2023-02-14T08:04:25;25.27;;;20.65;;
66425;SDS011;53237;46.158;14.604;2023-02-14T08:06:52;28.52;;;20.77;;
66425;SDS011;53237;46.158;14.604;2023-02-14T08:09:19;25.02;;;19.27;;
66425;SDS011;53237;46.158;14.604;2023-02-14T08:11:52;25.63;;;19.92;;
66425;SDS011;53237;46.158;14.604;2023-02-14T08:14:37;27.48;;;19.90;;
66425;SDS011;53237;46.158;14.604;2023-02-14T08:17:03;24.60;;;19.27;;
66425;SDS011;53237;46.158;14.604;2023-02-14T08:19:31;24.80;;;19.23;;
66425;SDS011;53237;46.158;14.604;2023-02-14T08:21:57;26.45;;;19.27;;
66425;SDS011;53237;46.158;14.604;2023-02-14T08:24:23;27.88;;;20.65;;
66425;SDS011;53237;46.158;14.604;2023-02-14T08:26:49;31.20;;;22.05;;
66425;SDS011;53237;46.158;14.604;2023-02-14T08:29:15;29.85;;;22.88;;
66425;SDS011;53237;46.158;14.604;2023-02-14T08:31:41;31.30;;;23.58;;
66425;SDS011;53237;46.158;14.604;2023-02-14T08:34:08;30.67;;;23.10;;
66425;SDS011;53237;46.158;14.604;2023-02-14T08:36:34;35.25;;;25.55;;
66425;SDS011;53237;46.158;14.604;2023-02-14T08:39:00;28.60;;;21.73;;
66425;SDS011;53237;46.158;14.604;2023-02-14T08:41:26;34.00;;;25.05;;
66425;SDS011;53237;46.158;14.604;2023-02-14T08:43:52;33.97;;;24.40;;
66425;SDS011;53237;46.158;14.604;2023-02-14T08:46:18;31.67;;;22.80;;
66425;SDS011;53237;46.158;14.604;2023-02-14T08:48:44;33.92;;;24.13;;
66425;SDS011;53237;46.158;14.604;2023-02-14T08:51:11;33.15;;;24.35;;
66425;SDS011;53237;46.158;14.604;2023-02-14T08:53:38;32.80;;;23.83;;
66425;SDS011;53237;46.158;14.604;2023-02-14T08:56:05;34.13;;;24.63;;
66425;SDS011;53237;46.158;14.604;2023-02-14T08:58:31;34.35;;;25.88;;
66425;SDS011;53237;46.158;14.604;2023-02-14T09:00:59;30.98;;;24.05;;
66425;SDS011;53237;46.158;14.604;2023-02-14T09:03:25;29.77;;;25.08;;
66425;SDS011;53237;46.158;14.604;2023-02-14T09:05:52;47.92;;;37.75;;
66425;SDS011;53237;46.158;14.604;2023-02-14T09:08:18;30.83;;;25.85;;
66425;SDS011;53237;46.158;14.604;2023-02-14T09:10:44;31.55;;;26.08;;
66425;SDS011;53237;46.158;14.604;2023-02-14T09:13:10;33.53;;;24.83;;
66425;SDS011;53237;46.158;14.604;2023-02-14T09:15:36;31.33;;;24.48;;
66425;SDS011;53237;46.158;14.604;2023-02-14T09:18:02;27.95;;;24.00;;
66425;SDS011;53237;46.158;14.604;2023-02-14T09:20:28;30.80;;;24.83;;
66425;SDS011;53237;46.158;14.604;2023-02-14T09:22:54;29.55;;;24.88;;
66425;SDS011;53237;46.158;14.604;2023-02-14T09:25:21;32.13;;;24.80;;
66425;SDS011;53237;46.158;14.604;2023-02-14T09:27:47;32.22;;;25.75;;
66425;SDS011;53237;46.158;14.604;2023-02-14T09:30:13;32.17;;;25.15;;
66425;SDS011;53237;46.158;14.604;2023-02-14T09:32:39;31.52;;;24.50;;
66425;SDS011;53237;46.158;14.604;2023-02-14T09:35:05;30.80;;;23.33;;
66425;SDS011;53237;46.158;14.604;2023-02-14T09:37:50;28.52;;;23.35;;
66425;SDS011;53237;46.158;14.604;2023-02-14T09:40:35;34.17;;;27.20;;
66425;SDS011;53237;46.158;14.604;2023-02-14T09:43:02;29.73;;;23.13;;
66425;SDS011;53237;46.158;14.604;2023-02-14T09:45:31;27.70;;;21.85;;
66425;SDS011;53237;46.158;14.604;2023-02-14T09:48:08;30.95;;;22.67;;
66425;SDS011;53237;46.158;14.604;2023-02-14T09:53:12;29.10;;;22.25;;
66425;SDS011;53237;46.158;14.604;2023-02-14T09:56:15;27.35;;;21.17;;
66425;SDS011;53237;46.158;14.604;2023-02-14T10:01:14;25.90;;;20.77;;
66425;SDS011;53237;46.158;14.604;2023-02-14T10:11:12;22.88;;;18.58;;
66425;SDS011;53237;46.158;14.604;2023-02-14T10:13:59;27.25;;;21.35;;
66425;SDS011;53237;46.158;14.604;2023-02-14T10:16:30;23.88;;;19.63;;
66425;SDS011;53237;46.158;14.604;2023-02-14T10:18:59;27.58;;;22.98;;
66425;SDS011;53237;46.158;14.604;2023-02-14T10:21:47;25.60;;;20.10;;
66425;SDS011;53237;46.158;14.604;2023-02-14T10:24:16;24.17;;;18.73;;
66425;SDS011;53237;46.158;14.604;2023-02-14T10:26:43;22.92;;;17.73;;
66425;SDS011;53237;46.158;14.604;2023-02-14T10:29:12;22.00;;;17.77;;
66425;SDS011;53237;46.158;14.604;2023-02-14T10:34:15;20.30;;;16.92;;
66425;SDS011;53237;46.158;14.604;2023-02-14T10:46:42;19.65;;;15.75;;
66425;SDS011;53237;46.158;14.604;2023-02-14T10:56:59;21.05;;;16.73;;
66425;SDS011;53237;46.158;14.604;2023-02-14T11:02:02;22.33;;;16.25;;
66425;SDS011;53237;46.158;14.604;2023-02-14T11:04:29;21.23;;;17.10;;
66425;SDS011;53237;46.158;14.604;2023-02-14T11:06:56;18.77;;;14.48;;
66425;SDS011;53237;46.158;14.604;2023-02-14T11:09:22;20.10;;;17.13;;
66425;SDS011;53237;46.158;14.604;2023-02-14T11:11:58;18.77;;;15.38;;
66425;SDS011;53237;46.158;14.604;2023-02-14T11:14:29;18.40;;;14.82;;
66425;SDS011;53237;46.158;14.604;2023-02-14T11:16:57;19.55;;;14.63;;
66425;SDS011;53237;46.158;14.604;2023-02-14T11:19:27;25.70;;;20.70;;
66425;SDS011;53237;46.158;14.604;2023-02-14T11:21:55;18.35;;;15.00;;
66425;SDS011;53237;46.158;14.604;2023-02-14T11:24:29;28.42;;;21.83;;
66425;SDS011;53237;46.158;14.604;2023-02-14T11:29:35;25.10;;;19.38;;
66425;SDS011;53237;46.158;14.604;2023-02-14T11:32:05;17.83;;;14.57;;
66425;SDS011;53237;46.158;14.604;2023-02-14T11:34:33;20.67;;;16.20;;
66425;SDS011;53237;46.158;14.604;2023-02-14T11:37:00;20.30;;;16.17;;
66425;SDS011;53237;46.158;14.604;2023-02-14T11:39:31;20.63;;;15.00;;
66425;SDS011;53237;46.158;14.604;2023-02-14T11:42:03;18.97;;;16.00;;
66425;SDS011;53237;46.158;14.604;2023-02-14T11:44:30;24.60;;;18.37;;
66425;SDS011;53237;46.158;14.604;2023-02-14T11:47:14;18.85;;;15.43;;
66425;SDS011;53237;46.158;14.604;2023-02-14T11:49:41;20.63;;;15.63;;
66425;SDS011;53237;46.158;14.604;2023-02-14T11:52:18;26.80;;;20.05;;
66425;SDS011;53237;46.158;14.604;2023-02-14T11:54:50;22.48;;;17.30;;
66425;SDS011;53237;46.158;14.604;2023-02-14T11:59:46;28.35;;;22.70;;
66425;SDS011;53237;46.158;14.604;2023-02-14T12:04:54;20.08;;;15.95;;
66425;SDS011;53237;46.158;14.604;2023-02-14T12:07:26;21.73;;;15.88;;
66425;SDS011;53237;46.158;14.604;2023-02-14T12:12:31;27.02;;;18.65;;
66425;SDS011;53237;46.158;14.604;2023-02-14T12:17:44;25.38;;;19.38;;
66425;SDS011;53237;46.158;14.604;2023-02-14T12:20:15;20.73;;;17.83;;
66425;SDS011;53237;46.158;14.604;2023-02-14T12:22:48;20.47;;;16.77;;
66425;SDS011;53237;46.158;14.604;2023-02-14T12:28:04;26.35;;;20.55;;
66425;SDS011;53237;46.158;14.604;2023-02-14T12:30:32;23.70;;;18.70;;
66425;SDS011;53237;46.158;14.604;2023-02-14T12:32:59;22.10;;;15.75;;
66425;SDS011;53237;46.158;14.604;2023-02-14T12:49:12;24.73;;;18.42;;
66425;SDS011;53237;46.158;14.604;2023-02-14T12:59:22;21.15;;;16.45;;
66425;SDS011;53237;46.158;14.604;2023-02-14T13:01:56;17.30;;;13.50;;
66425;SDS011;53237;46.158;14.604;2023-02-14T13:06:58;18.45;;;13.93;;
66425;SDS011;53237;46.158;14.604;2023-02-14T13:09:28;16.80;;;13.27;;
66425;SDS011;53237;46.158;14.604;2023-02-14T13:17:16;12.63;;;9.98;;
66425;SDS011;53237;46.158;14.604;2023-02-14T13:22:25;15.93;;;11.13;;
66425;SDS011;53237;46.158;14.604;2023-02-14T13:24:56;15.00;;;10.75;;
66425;SDS011;53237;46.158;14.604;2023-02-14T13:27:25;13.40;;;10.70;;
66425;SDS011;53237;46.158;14.604;2023-02-14T13:29:53;15.13;;;11.85;;
66425;SDS011;53237;46.158;14.604;2023-02-14T13:32:22;15.55;;;12.55;;
66425;SDS011;53237;46.158;14.604;2023-02-14T13:34:49;14.48;;;11.65;;
66425;SDS011;53237;46.158;14.604;2023-02-14T13:37:16;12.30;;;9.85;;
66425;SDS011;53237;46.158;14.604;2023-02-14T13:40:05;18.08;;;14.52;;
66425;SDS011;53237;46.158;14.604;2023-02-14T13:51:15;17.30;;;13.45;;
66425;SDS011;53237;46.158;14.604;2023-02-14T13:55:54;19.00;;;14.70;;
66425;SDS011;53237;46.158;14.604;2023-02-14T13:58:21;17.88;;;14.27;;
66425;SDS011;53237;46.158;14.604;2023-02-14T14:00:48;15.13;;;12.63;;
66425;SDS011;53237;46.158;14.604;2023-02-14T14:04:01;22.00;;;15.27;;
66425;SDS011;53237;46.158;14.604;2023-02-14T14:11:03;20.25;;;15.15;;
66425;SDS011;53237;46.158;14.604;2023-02-14T14:26:41;17.05;;;13.57;;
66425;SDS011;53237;46.158;14.604;2023-02-14T14:31:43;19.10;;;15.30;;
66425;SDS011;53237;46.158;14.604;2023-02-14T14:34:14;18.73;;;14.43;;
66425;SDS011;53237;46.158;14.604;2023-02-14T14:36:41;21.15;;;14.88;;
66425;SDS011;53237;46.158;14.604;2023-02-14T14:39:08;19.85;;;16.13;;
66425;SDS011;53237;46.158;14.604;2023-02-14T14:41:34;22.38;;;17.00;;
66425;SDS011;53237;46.158;14.604;2023-02-14T14:44:00;19.45;;;15.63;;
66425;SDS011;53237;46.158;14.604;2023-02-14T14:46:27;20.60;;;16.48;;
66425;SDS011;53237;46.158;14.604;2023-02-14T14:48:53;19.60;;;15.18;;
66425;SDS011;53237;46.158;14.604;2023-02-14T14:51:27;21.10;;;16.27;;
66425;SDS011;53237;46.158;14.604;2023-02-14T14:53:55;19.10;;;15.35;;
66425;SDS011;53237;46.158;14.604;2023-02-14T14:56:23;23.50;;;18.30;;
66425;SDS011;53237;46.158;14.604;2023-02-14T14:58:50;22.13;;;16.40;;
66425;SDS011;53237;46.158;14.604;2023-02-14T15:01:34;21.17;;;15.30;;
66425;SDS011;53237;46.158;14.604;2023-02-14T15:06:39;18.15;;;13.95;;
66425;SDS011;53237;46.158;14.604;2023-02-14T15:09:15;17.45;;;13.77;;
66425;SDS011;53237;46.158;14.604;2023-02-14T15:11:42;19.13;;;14.82;;
66425;SDS011;53237;46.158;14.604;2023-02-14T15:14:27;22.10;;;16.50;;
66425;SDS011;53237;46.158;14.604;2023-02-14T15:19:25;18.55;;;14.23;;
66425;SDS011;53237;46.158;14.604;2023-02-14T15:21:58;18.20;;;14.73;;
66425;SDS011;53237;46.158;14.604;2023-02-14T15:24:25;17.80;;;13.13;;
66425;SDS011;53237;46.158;14.604;2023-02-14T15:26:51;17.95;;;15.30;;
66425;SDS011;53237;46.158;14.604;2023-02-14T15:29:24;20.63;;;15.23;;
66425;SDS011;53237;46.158;14.604;2023-02-14T15:31:51;16.95;;;14.50;;
66425;SDS011;53237;46.158;14.604;2023-02-14T15:34:24;21.10;;;14.77;;
66425;SDS011;53237;46.158;14.604;2023-02-14T15:36:51;18.50;;;15.30;;
66425;SDS011;53237;46.158;14.604;2023-02-14T15:39:18;16.73;;;12.50;;
66425;SDS011;53237;46.158;14.604;2023-02-14T15:41:45;16.50;;;13.57;;
66425;SDS011;53237;46.158;14.604;2023-02-14T15:44:18;18.42;;;14.18;;
66425;SDS011;53237;46.158;14.604;2023-02-14T15:46:44;17.83;;;14.60;;
66425;SDS011;53237;46.158;14.604;2023-02-14T15:49:14;18.92;;;14.50;;
66425;SDS011;53237;46.158;14.604;2023-02-14T15:51:41;19.98;;;14.70;;
66425;SDS011;53237;46.158;14.604;2023-02-14T15:54:18;18.77;;;14.63;;
66425;SDS011;53237;46.158;14.604;2023-02-14T15:56:48;17.63;;;13.52;;
66425;SDS011;53237;46.158;14.604;2023-02-14T15:59:16;22.27;;;17.38;;
66425;SDS011;53237;46.158;14.604;2023-02-14T16:01:48;21.13;;;17.02;;
66425;SDS011;53237;46.158;14.604;2023-02-14T16:04:15;22.52;;;17.50;;
66425;SDS011;53237;46.158;14.604;2023-02-14T16:06:42;20.17;;;15.13;;
66425;SDS011;53237;46.158;14.604;2023-02-14T16:09:28;17.88;;;14.20;;
66425;SDS011;53237;46.158;14.604;2023-02-14T16:11:55;22.17;;;17.13;;
66425;SDS011;53237;46.158;14.604;2023-02-14T16:14:31;20.05;;;16.92;;
66425;SDS011;53237;46.158;14.604;2023-02-14T16:17:30;25.52;;;18.65;;
66425;SDS011;53237;46.158;14.604;2023-02-14T16:19:45;21.40;;;16.88;;
66425;SDS011;53237;46.158;14.604;2023-02-14T16:22:25;17.08;;;14.05;;
66425;SDS011;53237;46.158;14.604;2023-02-14T16:24:56;31.95;;;24.25;;
66425;SDS011;53237;46.158;14.604;2023-02-14T16:27:22;34.65;;;26.60;;
66425;SDS011;53237;46.158;14.604;2023-02-14T16:29:48;18.05;;;14.55;;
66425;SDS011;53237;46.158;14.604;2023-02-14T16:32:19;35.33;;;27.33;;
66425;SDS011;53237;46.158;14.604;2023-02-14T16:34:45;16.05;;;13.30;;
66425;SDS011;53237;46.158;14.604;2023-02-14T16:37:25;16.77;;;13.45;;
66425;SDS011;53237;46.158;14.604;2023-02-14T16:39:52;17.02;;;13.95;;
66425;SDS011;53237;46.158;14.604;2023-02-14T16:42:21;33.00;;;23.23;;
66425;SDS011;53237;46.158;14.604;2023-02-14T16:44:48;38.13;;;25.00;;
66425;SDS011;53237;46.158;14.604;2023-02-14T16:47:15;15.38;;;13.77;;
66425;SDS011;53237;46.158;14.604;2023-02-14T16:49:42;61.20;;;36.72;;
66425;SDS011;53237;46.158;14.604;2023-02-14T16:52:11;27.38;;;20.13;;
66425;SDS011;53237;46.158;14.604;2023-02-14T16:54:38;21.17;;;15.05;;
66425;SDS011;53237;46.158;14.604;2023-02-14T16:57:04;20.27;;;15.77;;
66425;SDS011;53237;46.158;14.604;2023-02-14T16:59:30;28.88;;;18.98;;
66425;SDS011;53237;46.158;14.604;2023-02-14T17:01:56;45.28;;;32.15;;
66425;SDS011;53237;46.158;14.604;2023-02-14T17:04:22;27.48;;;19.52;;